sensor_id;sensor_type;location;lat;lon;timestamp;P1;durP1;ratioP1;P2;durP2;ratioP2
70253;SDS011;57649;42.968;1.608;2024-01-27T00:01:31;26.63;;;17.67;;
70253;SDS011;57649;42.968;1.608;2024-01-27T00:03:57;33.00;;;19.08;;
70253;SDS011;57649;42.968;1.608;2024-01-27T00:06:22;33.08;;;19.65;;
70253;SDS011;57649;42.968;1.608;2024-01-27T00:08:48;36.45;;;19.13;;
70253;SDS011;57649;42.968;1.608;2024-01-27T00:11:13;27.33;;;17.42;;
70253;SDS011;57649;42.968;1.608;2024-01-27T00:13:38;26.67;;;17.58;;
70253;SDS011;57649;42.968;1.608;2024-01-27T00:16:04;26.92;;;16.77;;
70253;SDS011;57649;42.968;1.608;2024-01-27T00:18:30;29.90;;;18.05;;
70253;SDS011;57649;42.968;1.608;2024-01-27T00:20:55;25.55;;;15.50;;
70253;SDS011;57649;42.968;1.608;2024-01-27T00:23:21;21.10;;;12.65;;
70253;SDS011;57649;42.968;1.608;2024-01-27T00:25:46;21.35;;;13.25;;
70253;SDS011;57649;42.968;1.608;2024-01-27T00:28:12;29.45;;;14.70;;
70253;SDS011;57649;42.968;1.608;2024-01-27T00:30:37;21.45;;;12.93;;
70253;SDS011;57649;42.968;1.608;2024-01-27T00:33:03;19.60;;;12.05;;
70253;SDS011;57649;42.968;1.608;2024-01-27T00:35:28;18.35;;;11.38;;
70253;SDS011;57649;42.968;1.608;2024-01-27T00:37:54;22.63;;;12.20;;
70253;SDS011;57649;42.968;1.608;2024-01-27T00:40:19;20.80;;;11.38;;
70253;SDS011;57649;42.968;1.608;2024-01-27T00:42:45;16.23;;;10.20;;
70253;SDS011;57649;42.968;1.608;2024-01-27T00:45:13;17.75;;;10.27;;
70253;SDS011;57649;42.968;1.608;2024-01-27T00:47:38;19.27;;;11.07;;
70253;SDS011;57649;42.968;1.608;2024-01-27T00:50:04;19.77;;;10.40;;
70253;SDS011;57649;42.968;1.608;2024-01-27T00:52:30;19.70;;;10.77;;
70253;SDS011;57649;42.968;1.608;2024-01-27T00:54:56;16.27;;;10.93;;
70253;SDS011;57649;42.968;1.608;2024-01-27T00:57:21;19.80;;;11.40;;
70253;SDS011;57649;42.968;1.608;2024-01-27T00:59:47;15.55;;;9.70;;
70253;SDS011;57649;42.968;1.608;2024-01-27T01:02:13;15.23;;;9.20;;
70253;SDS011;57649;42.968;1.608;2024-01-27T01:04:39;17.55;;;9.98;;
70253;SDS011;57649;42.968;1.608;2024-01-27T01:07:05;17.65;;;10.10;;
70253;SDS011;57649;42.968;1.608;2024-01-27T01:09:31;20.10;;;10.85;;
70253;SDS011;57649;42.968;1.608;2024-01-27T01:11:56;20.67;;;11.02;;
70253;SDS011;57649;42.968;1.608;2024-01-27T01:14:22;18.33;;;11.32;;
70253;SDS011;57649;42.968;1.608;2024-01-27T01:16:47;16.00;;;10.52;;
70253;SDS011;57649;42.968;1.608;2024-01-27T01:19:13;18.83;;;11.20;;
70253;SDS011;57649;42.968;1.608;2024-01-27T01:21:38;15.25;;;9.48;;
70253;SDS011;57649;42.968;1.608;2024-01-27T01:24:04;18.40;;;10.27;;
70253;SDS011;57649;42.968;1.608;2024-01-27T01:26:29;17.60;;;9.70;;
70253;SDS011;57649;42.968;1.608;2024-01-27T01:28:55;14.35;;;9.00;;
70253;SDS011;57649;42.968;1.608;2024-01-27T01:31:20;22.50;;;9.02;;
70253;SDS011;57649;42.968;1.608;2024-01-27T01:33:46;14.45;;;8.07;;
70253;SDS011;57649;42.968;1.608;2024-01-27T01:36:11;12.40;;;8.15;;
70253;SDS011;57649;42.968;1.608;2024-01-27T01:38:37;13.02;;;7.45;;
70253;SDS011;57649;42.968;1.608;2024-01-27T01:41:02;14.98;;;7.80;;
70253;SDS011;57649;42.968;1.608;2024-01-27T01:43:30;14.88;;;8.73;;
70253;SDS011;57649;42.968;1.608;2024-01-27T01:45:56;13.45;;;8.38;;
70253;SDS011;57649;42.968;1.608;2024-01-27T01:48:21;13.73;;;8.45;;
70253;SDS011;57649;42.968;1.608;2024-01-27T01:50:47;15.23;;;7.70;;
70253;SDS011;57649;42.968;1.608;2024-01-27T01:53:13;19.77;;;7.75;;
70253;SDS011;57649;42.968;1.608;2024-01-27T01:55:39;15.32;;;7.40;;
70253;SDS011;57649;42.968;1.608;2024-01-27T01:58:05;12.52;;;6.60;;
70253;SDS011;57649;42.968;1.608;2024-01-27T02:00:31;16.10;;;8.43;;
70253;SDS011;57649;42.968;1.608;2024-01-27T02:02:59;13.50;;;7.22;;
70253;SDS011;57649;42.968;1.608;2024-01-27T02:05:25;13.13;;;6.70;;
70253;SDS011;57649;42.968;1.608;2024-01-27T02:07:50;13.65;;;6.95;;
70253;SDS011;57649;42.968;1.608;2024-01-27T02:10:18;13.55;;;6.97;;
70253;SDS011;57649;42.968;1.608;2024-01-27T02:12:44;13.02;;;7.68;;
70253;SDS011;57649;42.968;1.608;2024-01-27T02:15:10;12.88;;;7.03;;
70253;SDS011;57649;42.968;1.608;2024-01-27T02:17:40;13.75;;;7.18;;
70253;SDS011;57649;42.968;1.608;2024-01-27T02:20:06;13.40;;;8.15;;
70253;SDS011;57649;42.968;1.608;2024-01-27T02:22:33;18.88;;;7.43;;
70253;SDS011;57649;42.968;1.608;2024-01-27T02:25:04;13.43;;;7.93;;
70253;SDS011;57649;42.968;1.608;2024-01-27T02:27:32;18.90;;;9.70;;
70253;SDS011;57649;42.968;1.608;2024-01-27T02:29:57;16.35;;;7.85;;
70253;SDS011;57649;42.968;1.608;2024-01-27T02:32:23;14.70;;;8.52;;
70253;SDS011;57649;42.968;1.608;2024-01-27T02:34:48;14.30;;;8.38;;
70253;SDS011;57649;42.968;1.608;2024-01-27T02:37:14;16.20;;;8.95;;
70253;SDS011;57649;42.968;1.608;2024-01-27T02:39:39;14.07;;;7.30;;
70253;SDS011;57649;42.968;1.608;2024-01-27T02:42:05;11.90;;;7.45;;
70253;SDS011;57649;42.968;1.608;2024-01-27T02:44:31;11.15;;;6.53;;
70253;SDS011;57649;42.968;1.608;2024-01-27T02:46:56;12.60;;;7.07;;
70253;SDS011;57649;42.968;1.608;2024-01-27T02:49:21;14.23;;;6.88;;
70253;SDS011;57649;42.968;1.608;2024-01-27T02:51:47;12.85;;;6.75;;
70253;SDS011;57649;42.968;1.608;2024-01-27T02:54:13;15.43;;;7.38;;
70253;SDS011;57649;42.968;1.608;2024-01-27T02:56:38;12.32;;;6.80;;
70253;SDS011;57649;42.968;1.608;2024-01-27T02:59:04;10.32;;;6.13;;
70253;SDS011;57649;42.968;1.608;2024-01-27T03:01:29;13.68;;;7.75;;
70253;SDS011;57649;42.968;1.608;2024-01-27T03:03:55;20.98;;;13.35;;
70253;SDS011;57649;42.968;1.608;2024-01-27T03:06:20;20.90;;;12.23;;
70253;SDS011;57649;42.968;1.608;2024-01-27T03:08:45;21.67;;;11.05;;
70253;SDS011;57649;42.968;1.608;2024-01-27T03:11:11;13.98;;;7.28;;
70253;SDS011;57649;42.968;1.608;2024-01-27T03:13:36;14.05;;;5.85;;
70253;SDS011;57649;42.968;1.608;2024-01-27T03:16:02;8.45;;;5.63;;
70253;SDS011;57649;42.968;1.608;2024-01-27T03:18:27;13.35;;;6.10;;
70253;SDS011;57649;42.968;1.608;2024-01-27T03:20:53;11.88;;;7.30;;
70253;SDS011;57649;42.968;1.608;2024-01-27T03:23:18;10.30;;;6.35;;
70253;SDS011;57649;42.968;1.608;2024-01-27T03:25:44;12.27;;;6.30;;
70253;SDS011;57649;42.968;1.608;2024-01-27T03:28:10;16.92;;;6.43;;
70253;SDS011;57649;42.968;1.608;2024-01-27T03:30:35;11.48;;;7.43;;
70253;SDS011;57649;42.968;1.608;2024-01-27T03:33:01;12.30;;;7.68;;
70253;SDS011;57649;42.968;1.608;2024-01-27T03:35:26;19.73;;;9.90;;
70253;SDS011;57649;42.968;1.608;2024-01-27T03:37:52;20.83;;;11.07;;
70253;SDS011;57649;42.968;1.608;2024-01-27T03:40:17;13.20;;;8.05;;
70253;SDS011;57649;42.968;1.608;2024-01-27T03:42:43;12.15;;;6.53;;
70253;SDS011;57649;42.968;1.608;2024-01-27T03:45:08;12.30;;;6.15;;
70253;SDS011;57649;42.968;1.608;2024-01-27T03:47:34;9.85;;;5.80;;
70253;SDS011;57649;42.968;1.608;2024-01-27T03:50:01;14.93;;;6.47;;
70253;SDS011;57649;42.968;1.608;2024-01-27T03:52:27;8.05;;;5.85;;
70253;SDS011;57649;42.968;1.608;2024-01-27T03:54:52;11.95;;;5.53;;
70253;SDS011;57649;42.968;1.608;2024-01-27T03:57:18;9.40;;;5.32;;
70253;SDS011;57649;42.968;1.608;2024-01-27T03:59:45;9.45;;;5.65;;
70253;SDS011;57649;42.968;1.608;2024-01-27T04:02:11;13.00;;;5.68;;
70253;SDS011;57649;42.968;1.608;2024-01-27T04:04:36;9.82;;;5.53;;
70253;SDS011;57649;42.968;1.608;2024-01-27T04:07:02;10.32;;;5.80;;
70253;SDS011;57649;42.968;1.608;2024-01-27T04:09:27;11.45;;;5.72;;
70253;SDS011;57649;42.968;1.608;2024-01-27T04:11:53;9.75;;;5.78;;
70253;SDS011;57649;42.968;1.608;2024-01-27T04:14:18;12.57;;;6.15;;
70253;SDS011;57649;42.968;1.608;2024-01-27T04:16:44;11.40;;;5.82;;
70253;SDS011;57649;42.968;1.608;2024-01-27T04:19:09;10.45;;;5.95;;
70253;SDS011;57649;42.968;1.608;2024-01-27T04:21:35;12.02;;;5.28;;
70253;SDS011;57649;42.968;1.608;2024-01-27T04:24:00;9.45;;;5.40;;
70253;SDS011;57649;42.968;1.608;2024-01-27T04:26:26;14.50;;;5.28;;
70253;SDS011;57649;42.968;1.608;2024-01-27T04:28:51;10.27;;;5.63;;
70253;SDS011;57649;42.968;1.608;2024-01-27T04:31:17;11.55;;;6.10;;
70253;SDS011;57649;42.968;1.608;2024-01-27T04:33:42;12.93;;;5.72;;
70253;SDS011;57649;42.968;1.608;2024-01-27T04:36:07;8.55;;;4.82;;
70253;SDS011;57649;42.968;1.608;2024-01-27T04:38:34;8.35;;;4.85;;
70253;SDS011;57649;42.968;1.608;2024-01-27T04:41:00;8.95;;;4.65;;
70253;SDS011;57649;42.968;1.608;2024-01-27T04:43:26;12.60;;;5.22;;
70253;SDS011;57649;42.968;1.608;2024-01-27T04:45:51;9.18;;;4.80;;
70253;SDS011;57649;42.968;1.608;2024-01-27T04:48:16;10.73;;;5.10;;
70253;SDS011;57649;42.968;1.608;2024-01-27T04:50:42;12.77;;;5.20;;
70253;SDS011;57649;42.968;1.608;2024-01-27T04:53:08;11.27;;;4.97;;
70253;SDS011;57649;42.968;1.608;2024-01-27T04:55:35;10.20;;;4.80;;
70253;SDS011;57649;42.968;1.608;2024-01-27T04:58:01;9.45;;;5.38;;
70253;SDS011;57649;42.968;1.608;2024-01-27T05:00:26;13.90;;;4.68;;
70253;SDS011;57649;42.968;1.608;2024-01-27T05:02:53;9.38;;;4.65;;
70253;SDS011;57649;42.968;1.608;2024-01-27T05:05:18;10.32;;;4.65;;
70253;SDS011;57649;42.968;1.608;2024-01-27T05:07:44;8.60;;;4.75;;
70253;SDS011;57649;42.968;1.608;2024-01-27T05:10:12;9.25;;;4.60;;
70253;SDS011;57649;42.968;1.608;2024-01-27T05:12:39;8.45;;;4.45;;
70253;SDS011;57649;42.968;1.608;2024-01-27T05:15:04;8.65;;;4.57;;
70253;SDS011;57649;42.968;1.608;2024-01-27T05:30:55;12.68;;;4.20;;
70253;SDS011;57649;42.968;1.608;2024-01-27T05:33:21;9.95;;;4.88;;
70253;SDS011;57649;42.968;1.608;2024-01-27T05:38:55;8.13;;;5.25;;
70253;SDS011;57649;42.968;1.608;2024-01-27T05:42:02;8.05;;;5.30;;
70253;SDS011;57649;42.968;1.608;2024-01-27T05:51:39;11.43;;;4.60;;
70253;SDS011;57649;42.968;1.608;2024-01-27T05:54:04;15.10;;;4.50;;
70253;SDS011;57649;42.968;1.608;2024-01-27T05:56:47;8.60;;;5.38;;
70253;SDS011;57649;42.968;1.608;2024-01-27T05:59:13;10.85;;;4.55;;
70253;SDS011;57649;42.968;1.608;2024-01-27T06:01:38;7.88;;;4.22;;
70253;SDS011;57649;42.968;1.608;2024-01-27T06:04:06;13.68;;;5.65;;
70253;SDS011;57649;42.968;1.608;2024-01-27T06:06:31;12.60;;;4.35;;
70253;SDS011;57649;42.968;1.608;2024-01-27T06:08:57;10.95;;;4.93;;
70253;SDS011;57649;42.968;1.608;2024-01-27T06:11:23;11.18;;;4.88;;
70253;SDS011;57649;42.968;1.608;2024-01-27T06:13:49;9.50;;;4.68;;
70253;SDS011;57649;42.968;1.608;2024-01-27T06:16:15;10.75;;;5.45;;
70253;SDS011;57649;42.968;1.608;2024-01-27T06:18:43;10.63;;;4.70;;
70253;SDS011;57649;42.968;1.608;2024-01-27T06:21:14;11.30;;;5.03;;
70253;SDS011;57649;42.968;1.608;2024-01-27T06:23:42;11.68;;;6.00;;
70253;SDS011;57649;42.968;1.608;2024-01-27T06:26:12;11.45;;;5.15;;
70253;SDS011;57649;42.968;1.608;2024-01-27T06:42:56;9.68;;;5.53;;
70253;SDS011;57649;42.968;1.608;2024-01-27T06:48:58;9.80;;;5.00;;
70253;SDS011;57649;42.968;1.608;2024-01-27T06:58:11;10.02;;;5.10;;
70253;SDS011;57649;42.968;1.608;2024-01-27T07:13:57;10.13;;;5.30;;
70253;SDS011;57649;42.968;1.608;2024-01-27T07:16:23;10.73;;;5.70;;
70253;SDS011;57649;42.968;1.608;2024-01-27T07:27:41;13.43;;;5.38;;
70253;SDS011;57649;42.968;1.608;2024-01-27T07:30:09;12.13;;;5.95;;
70253;SDS011;57649;42.968;1.608;2024-01-27T07:35:46;10.55;;;5.25;;
70253;SDS011;57649;42.968;1.608;2024-01-27T07:45:38;10.32;;;4.68;;
70253;SDS011;57649;42.968;1.608;2024-01-27T07:48:04;12.35;;;5.40;;
70253;SDS011;57649;42.968;1.608;2024-01-27T07:50:30;8.32;;;4.95;;
70253;SDS011;57649;42.968;1.608;2024-01-27T07:52:58;14.80;;;5.18;;
70253;SDS011;57649;42.968;1.608;2024-01-27T07:55:28;11.95;;;5.90;;
70253;SDS011;57649;42.968;1.608;2024-01-27T08:05:09;13.82;;;4.95;;
70253;SDS011;57649;42.968;1.608;2024-01-27T08:07:34;12.52;;;5.20;;
70253;SDS011;57649;42.968;1.608;2024-01-27T08:09:59;11.50;;;5.10;;
70253;SDS011;57649;42.968;1.608;2024-01-27T08:12:25;11.02;;;4.97;;
70253;SDS011;57649;42.968;1.608;2024-01-27T08:14:53;13.55;;;4.90;;
70253;SDS011;57649;42.968;1.608;2024-01-27T08:17:19;12.05;;;5.60;;
70253;SDS011;57649;42.968;1.608;2024-01-27T08:19:44;12.10;;;4.82;;
70253;SDS011;57649;42.968;1.608;2024-01-27T08:22:10;10.95;;;5.80;;
70253;SDS011;57649;42.968;1.608;2024-01-27T08:24:37;14.10;;;6.63;;
70253;SDS011;57649;42.968;1.608;2024-01-27T08:27:11;10.80;;;5.43;;
70253;SDS011;57649;42.968;1.608;2024-01-27T08:29:38;14.45;;;5.15;;
70253;SDS011;57649;42.968;1.608;2024-01-27T08:38:16;11.95;;;5.07;;
70253;SDS011;57649;42.968;1.608;2024-01-27T08:40:48;15.38;;;5.53;;
70253;SDS011;57649;42.968;1.608;2024-01-27T08:49:38;12.30;;;6.28;;
70253;SDS011;57649;42.968;1.608;2024-01-27T08:52:04;10.77;;;5.45;;
70253;SDS011;57649;42.968;1.608;2024-01-27T08:54:29;9.02;;;5.15;;
70253;SDS011;57649;42.968;1.608;2024-01-27T09:03:30;13.15;;;4.72;;
70253;SDS011;57649;42.968;1.608;2024-01-27T09:05:55;9.82;;;5.10;;
70253;SDS011;57649;42.968;1.608;2024-01-27T09:08:37;11.43;;;5.30;;
70253;SDS011;57649;42.968;1.608;2024-01-27T09:11:03;10.15;;;5.03;;
70253;SDS011;57649;42.968;1.608;2024-01-27T09:13:46;12.55;;;5.30;;
70253;SDS011;57649;42.968;1.608;2024-01-27T09:19:55;12.48;;;5.18;;
70253;SDS011;57649;42.968;1.608;2024-01-27T09:26:10;8.43;;;5.05;;
70253;SDS011;57649;42.968;1.608;2024-01-27T09:28:46;9.48;;;5.35;;
70253;SDS011;57649;42.968;1.608;2024-01-27T09:31:29;13.13;;;5.57;;
70253;SDS011;57649;42.968;1.608;2024-01-27T09:33:55;9.77;;;6.43;;
70253;SDS011;57649;42.968;1.608;2024-01-27T09:36:21;8.85;;;5.35;;
70253;SDS011;57649;42.968;1.608;2024-01-27T09:38:49;12.13;;;6.00;;
70253;SDS011;57649;42.968;1.608;2024-01-27T09:44:14;11.75;;;5.30;;
70253;SDS011;57649;42.968;1.608;2024-01-27T09:47:04;9.65;;;4.82;;
70253;SDS011;57649;42.968;1.608;2024-01-27T09:49:52;8.50;;;4.70;;
70253;SDS011;57649;42.968;1.608;2024-01-27T09:52:46;11.45;;;4.68;;
70253;SDS011;57649;42.968;1.608;2024-01-27T09:55:26;7.97;;;4.18;;
70253;SDS011;57649;42.968;1.608;2024-01-27T10:08:33;8.98;;;4.20;;
70253;SDS011;57649;42.968;1.608;2024-01-27T10:15:00;11.07;;;5.28;;
70253;SDS011;57649;42.968;1.608;2024-01-27T10:20:30;8.25;;;4.32;;
70253;SDS011;57649;42.968;1.608;2024-01-27T10:33:52;7.60;;;4.20;;
70253;SDS011;57649;42.968;1.608;2024-01-27T10:53:03;7.70;;;4.05;;
70253;SDS011;57649;42.968;1.608;2024-01-27T10:55:33;11.77;;;3.65;;
70253;SDS011;57649;42.968;1.608;2024-01-27T11:01:26;9.90;;;3.80;;
70253;SDS011;57649;42.968;1.608;2024-01-27T11:10:00;11.23;;;4.15;;
70253;SDS011;57649;42.968;1.608;2024-01-27T11:12:52;10.63;;;4.05;;
70253;SDS011;57649;42.968;1.608;2024-01-27T11:19:10;10.60;;;4.63;;
70253;SDS011;57649;42.968;1.608;2024-01-27T11:21:37;8.27;;;3.40;;
70253;SDS011;57649;42.968;1.608;2024-01-27T11:24:23;11.52;;;4.45;;
70253;SDS011;57649;42.968;1.608;2024-01-27T11:26:48;8.20;;;3.63;;
70253;SDS011;57649;42.968;1.608;2024-01-27T11:29:24;12.35;;;4.57;;
70253;SDS011;57649;42.968;1.608;2024-01-27T11:31:51;7.55;;;3.63;;
70253;SDS011;57649;42.968;1.608;2024-01-27T11:34:17;10.25;;;3.63;;
70253;SDS011;57649;42.968;1.608;2024-01-27T11:36:44;8.40;;;3.63;;
70253;SDS011;57649;42.968;1.608;2024-01-27T11:39:26;9.93;;;3.95;;
70253;SDS011;57649;42.968;1.608;2024-01-27T11:41:52;8.40;;;3.85;;
70253;SDS011;57649;42.968;1.608;2024-01-27T11:44:19;10.95;;;3.53;;
70253;SDS011;57649;42.968;1.608;2024-01-27T11:46:45;14.00;;;4.90;;
70253;SDS011;57649;42.968;1.608;2024-01-27T11:52:54;15.25;;;8.25;;
70253;SDS011;57649;42.968;1.608;2024-01-27T11:55:21;10.45;;;3.30;;
70253;SDS011;57649;42.968;1.608;2024-01-27T11:57:46;7.45;;;3.75;;
70253;SDS011;57649;42.968;1.608;2024-01-27T12:00:12;11.50;;;4.75;;
70253;SDS011;57649;42.968;1.608;2024-01-27T12:02:38;13.68;;;4.03;;
70253;SDS011;57649;42.968;1.608;2024-01-27T12:05:08;12.68;;;4.95;;
70253;SDS011;57649;42.968;1.608;2024-01-27T12:07:34;11.13;;;3.97;;
70253;SDS011;57649;42.968;1.608;2024-01-27T12:09:59;7.55;;;4.30;;
70253;SDS011;57649;42.968;1.608;2024-01-27T12:12:25;13.13;;;4.75;;
70253;SDS011;57649;42.968;1.608;2024-01-27T12:14:50;8.98;;;5.05;;
70253;SDS011;57649;42.968;1.608;2024-01-27T12:17:16;12.65;;;4.85;;
70253;SDS011;57649;42.968;1.608;2024-01-27T12:19:47;10.85;;;3.75;;
70253;SDS011;57649;42.968;1.608;2024-01-27T12:24:46;14.80;;;4.35;;
70253;SDS011;57649;42.968;1.608;2024-01-27T12:27:12;12.98;;;4.40;;
70253;SDS011;57649;42.968;1.608;2024-01-27T12:29:37;11.02;;;4.20;;
70253;SDS011;57649;42.968;1.608;2024-01-27T12:32:08;11.63;;;3.85;;
70253;SDS011;57649;42.968;1.608;2024-01-27T12:34:39;9.57;;;3.58;;
70253;SDS011;57649;42.968;1.608;2024-01-27T12:37:05;10.95;;;4.15;;
70253;SDS011;57649;42.968;1.608;2024-01-27T12:39:30;11.30;;;4.45;;
70253;SDS011;57649;42.968;1.608;2024-01-27T12:41:56;12.02;;;4.00;;
70253;SDS011;57649;42.968;1.608;2024-01-27T12:44:21;9.70;;;3.90;;
70253;SDS011;57649;42.968;1.608;2024-01-27T12:46:47;9.68;;;3.60;;
70253;SDS011;57649;42.968;1.608;2024-01-27T12:49:12;11.55;;;3.90;;
70253;SDS011;57649;42.968;1.608;2024-01-27T12:51:37;10.90;;;3.78;;
70253;SDS011;57649;42.968;1.608;2024-01-27T12:54:03;13.70;;;4.80;;
70253;SDS011;57649;42.968;1.608;2024-01-27T12:56:28;12.35;;;4.15;;
70253;SDS011;57649;42.968;1.608;2024-01-27T12:58:54;10.90;;;3.28;;
70253;SDS011;57649;42.968;1.608;2024-01-27T13:01:19;16.10;;;3.80;;
70253;SDS011;57649;42.968;1.608;2024-01-27T13:03:45;15.80;;;3.72;;
70253;SDS011;57649;42.968;1.608;2024-01-27T13:06:10;12.25;;;3.83;;
70253;SDS011;57649;42.968;1.608;2024-01-27T13:08:36;9.68;;;4.03;;
70253;SDS011;57649;42.968;1.608;2024-01-27T13:11:01;11.52;;;4.10;;
70253;SDS011;57649;42.968;1.608;2024-01-27T13:13:27;13.82;;;4.50;;
70253;SDS011;57649;42.968;1.608;2024-01-27T13:15:53;9.60;;;4.22;;
70253;SDS011;57649;42.968;1.608;2024-01-27T13:18:18;11.60;;;4.30;;
70253;SDS011;57649;42.968;1.608;2024-01-27T13:20:44;11.48;;;4.70;;
70253;SDS011;57649;42.968;1.608;2024-01-27T13:23:09;7.13;;;4.05;;
70253;SDS011;57649;42.968;1.608;2024-01-27T13:25:34;10.88;;;4.20;;
70253;SDS011;57649;42.968;1.608;2024-01-27T13:28:00;8.63;;;4.10;;
70253;SDS011;57649;42.968;1.608;2024-01-27T13:30:25;10.63;;;4.05;;
70253;SDS011;57649;42.968;1.608;2024-01-27T13:32:55;11.05;;;3.80;;
70253;SDS011;57649;42.968;1.608;2024-01-27T13:42:48;21.10;;;5.00;;
70253;SDS011;57649;42.968;1.608;2024-01-27T13:45:21;9.35;;;4.32;;
70253;SDS011;57649;42.968;1.608;2024-01-27T13:48:13;13.50;;;3.72;;
70253;SDS011;57649;42.968;1.608;2024-01-27T13:57:03;12.48;;;4.22;;
70253;SDS011;57649;42.968;1.608;2024-01-27T13:59:30;7.07;;;3.35;;
70253;SDS011;57649;42.968;1.608;2024-01-27T14:02:38;11.15;;;3.80;;
70253;SDS011;57649;42.968;1.608;2024-01-27T14:08:51;14.45;;;4.35;;
70253;SDS011;57649;42.968;1.608;2024-01-27T14:11:44;11.95;;;4.43;;
70253;SDS011;57649;42.968;1.608;2024-01-27T14:14:09;15.48;;;3.85;;
70253;SDS011;57649;42.968;1.608;2024-01-27T14:16:57;11.25;;;6.07;;
70253;SDS011;57649;42.968;1.608;2024-01-27T14:19:23;11.50;;;4.55;;
70253;SDS011;57649;42.968;1.608;2024-01-27T14:24:59;11.30;;;4.22;;
70253;SDS011;57649;42.968;1.608;2024-01-27T14:27:58;9.80;;;3.78;;
70253;SDS011;57649;42.968;1.608;2024-01-27T14:34:32;9.73;;;3.47;;
70253;SDS011;57649;42.968;1.608;2024-01-27T14:37:00;5.90;;;3.90;;
70253;SDS011;57649;42.968;1.608;2024-01-27T14:42:21;9.70;;;3.63;;
70253;SDS011;57649;42.968;1.608;2024-01-27T14:44:54;7.70;;;3.33;;
70253;SDS011;57649;42.968;1.608;2024-01-27T14:47:25;6.47;;;3.10;;
70253;SDS011;57649;42.968;1.608;2024-01-27T14:49:59;7.60;;;3.78;;
70253;SDS011;57649;42.968;1.608;2024-01-27T15:01:54;11.23;;;3.25;;
70253;SDS011;57649;42.968;1.608;2024-01-27T15:04:49;11.82;;;4.35;;
70253;SDS011;57649;42.968;1.608;2024-01-27T15:07:14;8.40;;;3.45;;
70253;SDS011;57649;42.968;1.608;2024-01-27T15:09:41;12.88;;;3.97;;
70253;SDS011;57649;42.968;1.608;2024-01-27T15:12:07;9.27;;;3.70;;
70253;SDS011;57649;42.968;1.608;2024-01-27T15:14:32;10.00;;;4.53;;
70253;SDS011;57649;42.968;1.608;2024-01-27T15:16:58;7.25;;;3.80;;
70253;SDS011;57649;42.968;1.608;2024-01-27T15:19:31;13.57;;;4.93;;
70253;SDS011;57649;42.968;1.608;2024-01-27T15:21:57;9.35;;;3.45;;
70253;SDS011;57649;42.968;1.608;2024-01-27T15:24:25;8.10;;;3.72;;
70253;SDS011;57649;42.968;1.608;2024-01-27T15:26:51;7.97;;;4.05;;
70253;SDS011;57649;42.968;1.608;2024-01-27T15:29:23;7.63;;;4.03;;
70253;SDS011;57649;42.968;1.608;2024-01-27T15:31:48;9.82;;;4.72;;
70253;SDS011;57649;42.968;1.608;2024-01-27T15:34:13;9.07;;;3.95;;
70253;SDS011;57649;42.968;1.608;2024-01-27T15:36:39;13.60;;;4.43;;
70253;SDS011;57649;42.968;1.608;2024-01-27T15:39:05;10.18;;;4.03;;
70253;SDS011;57649;42.968;1.608;2024-01-27T15:41:32;10.07;;;4.20;;
70253;SDS011;57649;42.968;1.608;2024-01-27T15:43:58;8.30;;;3.85;;
70253;SDS011;57649;42.968;1.608;2024-01-27T15:46:25;11.57;;;4.65;;
70253;SDS011;57649;42.968;1.608;2024-01-27T15:48:50;9.90;;;3.60;;
70253;SDS011;57649;42.968;1.608;2024-01-27T15:51:18;6.28;;;4.03;;
70253;SDS011;57649;42.968;1.608;2024-01-27T15:53:47;6.85;;;3.35;;
70253;SDS011;57649;42.968;1.608;2024-01-27T15:56:18;6.05;;;3.88;;
70253;SDS011;57649;42.968;1.608;2024-01-27T15:58:54;18.42;;;4.30;;
70253;SDS011;57649;42.968;1.608;2024-01-27T16:04:09;45.40;;;20.75;;
70253;SDS011;57649;42.968;1.608;2024-01-27T16:06:35;8.80;;;4.47;;
70253;SDS011;57649;42.968;1.608;2024-01-27T16:09:01;13.00;;;6.18;;
70253;SDS011;57649;42.968;1.608;2024-01-27T16:11:45;10.13;;;5.50;;
70253;SDS011;57649;42.968;1.608;2024-01-27T16:14:10;8.63;;;5.10;;
70253;SDS011;57649;42.968;1.608;2024-01-27T16:16:59;7.93;;;4.80;;
70253;SDS011;57649;42.968;1.608;2024-01-27T16:20:14;5.95;;;3.92;;
70253;SDS011;57649;42.968;1.608;2024-01-27T16:23:17;7.30;;;4.30;;
70253;SDS011;57649;42.968;1.608;2024-01-27T16:25:42;11.32;;;5.70;;
70253;SDS011;57649;42.968;1.608;2024-01-27T16:31:42;7.97;;;4.45;;
70253;SDS011;57649;42.968;1.608;2024-01-27T16:34:17;7.45;;;4.22;;
70253;SDS011;57649;42.968;1.608;2024-01-27T16:39:44;6.43;;;4.75;;
70253;SDS011;57649;42.968;1.608;2024-01-27T16:42:10;8.00;;;4.40;;
70253;SDS011;57649;42.968;1.608;2024-01-27T16:44:38;9.93;;;5.07;;
70253;SDS011;57649;42.968;1.608;2024-01-27T16:47:19;7.88;;;5.15;;
70253;SDS011;57649;42.968;1.608;2024-01-27T16:49:51;12.77;;;7.00;;
70253;SDS011;57649;42.968;1.608;2024-01-27T16:52:25;13.82;;;7.93;;
70253;SDS011;57649;42.968;1.608;2024-01-27T16:55:25;25.42;;;10.77;;
70253;SDS011;57649;42.968;1.608;2024-01-27T16:58:27;18.52;;;11.75;;
70253;SDS011;57649;42.968;1.608;2024-01-27T17:01:16;27.75;;;14.95;;
70253;SDS011;57649;42.968;1.608;2024-01-27T17:03:42;24.27;;;11.73;;
70253;SDS011;57649;42.968;1.608;2024-01-27T17:06:13;18.30;;;10.18;;
70253;SDS011;57649;42.968;1.608;2024-01-27T17:08:53;19.88;;;9.95;;
70253;SDS011;57649;42.968;1.608;2024-01-27T17:11:55;14.85;;;8.48;;
70253;SDS011;57649;42.968;1.608;2024-01-27T17:18:27;8.00;;;4.55;;
70253;SDS011;57649;42.968;1.608;2024-01-27T17:24:36;11.95;;;6.38;;
70253;SDS011;57649;42.968;1.608;2024-01-27T17:27:07;9.77;;;5.28;;
70253;SDS011;57649;42.968;1.608;2024-01-27T17:29:33;12.10;;;7.65;;
70253;SDS011;57649;42.968;1.608;2024-01-27T17:32:01;10.82;;;6.25;;
70253;SDS011;57649;42.968;1.608;2024-01-27T17:34:26;20.85;;;12.30;;
70253;SDS011;57649;42.968;1.608;2024-01-27T17:36:52;26.95;;;15.50;;
70253;SDS011;57649;42.968;1.608;2024-01-27T17:39:26;25.10;;;13.73;;
70253;SDS011;57649;42.968;1.608;2024-01-27T17:42:35;23.70;;;12.40;;
70253;SDS011;57649;42.968;1.608;2024-01-27T17:45:04;20.50;;;12.02;;
70253;SDS011;57649;42.968;1.608;2024-01-27T17:47:33;28.55;;;16.05;;
70253;SDS011;57649;42.968;1.608;2024-01-27T17:50:04;25.85;;;15.40;;
70253;SDS011;57649;42.968;1.608;2024-01-27T17:52:33;31.75;;;17.20;;
70253;SDS011;57649;42.968;1.608;2024-01-27T17:54:58;41.85;;;21.92;;
70253;SDS011;57649;42.968;1.608;2024-01-27T17:57:27;46.75;;;23.55;;
70253;SDS011;57649;42.968;1.608;2024-01-27T17:59:55;29.45;;;15.43;;
70253;SDS011;57649;42.968;1.608;2024-01-27T18:02:20;23.30;;;12.43;;
70253;SDS011;57649;42.968;1.608;2024-01-27T18:04:53;25.52;;;13.35;;
70253;SDS011;57649;42.968;1.608;2024-01-27T18:07:19;21.90;;;13.18;;
70253;SDS011;57649;42.968;1.608;2024-01-27T18:10:05;20.55;;;11.95;;
70253;SDS011;57649;42.968;1.608;2024-01-27T18:15:14;26.75;;;12.82;;
70253;SDS011;57649;42.968;1.608;2024-01-27T18:17:48;23.40;;;12.25;;
70253;SDS011;57649;42.968;1.608;2024-01-27T18:20:41;31.10;;;14.25;;
70253;SDS011;57649;42.968;1.608;2024-01-27T18:23:12;30.00;;;16.05;;
70253;SDS011;57649;42.968;1.608;2024-01-27T18:26:18;24.17;;;14.48;;
70253;SDS011;57649;42.968;1.608;2024-01-27T18:28:45;27.92;;;13.73;;
70253;SDS011;57649;42.968;1.608;2024-01-27T18:31:13;24.42;;;13.20;;
70253;SDS011;57649;42.968;1.608;2024-01-27T18:33:59;21.65;;;11.32;;
70253;SDS011;57649;42.968;1.608;2024-01-27T18:36:25;16.48;;;10.98;;
70253;SDS011;57649;42.968;1.608;2024-01-27T18:38:52;25.42;;;11.70;;
70253;SDS011;57649;42.968;1.608;2024-01-27T18:41:19;24.25;;;12.50;;
70253;SDS011;57649;42.968;1.608;2024-01-27T18:43:44;26.75;;;13.68;;
70253;SDS011;57649;42.968;1.608;2024-01-27T18:46:18;24.50;;;13.48;;